Terminal Aerodrome Forecast
Issued by NWS

Current Version | Previous Version | Text Only | Print | Product List | Glossary Off
Versions: 1 2 3 4 5 6 7 8 9 10 11 12 13 14 15 16 17 18 19 20 21

000
FTUS41 KILN 011125
TAFLUK
TAF
KLUK 011125Z 0112/0212 00000KT 4SM BR SKC
      TEMPO 0112/0113 2SM BR SCT002
     FM011300 00000KT P6SM FEW090
     FM011800 23004KT P6SM BKN040
     FM020100 VRB02KT P6SM FEW050
     FM020700 00000KT 3SM BR SCT002
      TEMPO 0208/0212 1/4SM FG VV002=

USA.gov is the U.S. government's official web portal to all federal, state and local government web resources and services.